createdAt,value
2023-05-19T00:02:26.037Z,8.25
2023-05-19T00:04:53.564Z,8.22
2023-05-19T00:07:26.025Z,8.20
2023-05-19T00:09:53.437Z,8.20
2023-05-19T00:12:20.280Z,8.24
2023-05-19T00:14:47.204Z,8.20
2023-05-19T00:17:14.518Z,8.20
2023-05-19T00:19:41.115Z,8.16
2023-05-19T00:22:07.668Z,8.15
2023-05-19T00:24:34.878Z,8.20
2023-05-19T00:27:01.541Z,8.15
2023-05-19T00:29:29.527Z,8.09
2023-05-19T00:31:56.662Z,8.08
2023-05-19T00:34:23.725Z,8.11
2023-05-19T00:36:50.653Z,8.08
2023-05-19T00:39:17.219Z,8.06
2023-05-19T00:41:44.067Z,8.05
2023-05-19T00:44:10.652Z,8.05
2023-05-19T00:46:38.200Z,8.05
2023-05-19T00:49:05.103Z,8.04
2023-05-19T00:51:32.089Z,8.03
2023-05-19T00:53:59.233Z,8.01
2023-05-19T00:56:26.469Z,8.03
2023-05-19T00:58:54.724Z,7.98
2023-05-19T01:01:22.488Z,7.94
2023-05-19T01:03:49.902Z,7.92
2023-05-19T01:06:19.315Z,7.94
2023-05-19T01:08:46.572Z,7.89
2023-05-19T01:11:13.329Z,7.93
2023-05-19T01:13:42.078Z,7.88
2023-05-19T01:16:09.191Z,7.87
2023-05-19T01:18:46.357Z,7.92
2023-05-19T01:21:53.915Z,7.85
2023-05-19T01:24:45.447Z,7.81
2023-05-19T01:27:41.125Z,7.81
2023-05-19T01:30:26.271Z,7.83
2023-05-19T01:33:00.402Z,7.82
2023-05-19T01:35:28.716Z,7.79
2023-05-19T01:37:58.108Z,7.79
2023-05-19T01:40:26.560Z,7.79
2023-05-19T01:42:57.509Z,7.82
2023-05-19T01:45:27.901Z,7.79
2023-05-19T01:47:57.646Z,7.82
2023-05-19T01:50:24.568Z,7.81
2023-05-19T01:52:52.288Z,7.82
2023-05-19T01:55:19.548Z,7.83
2023-05-19T01:58:05.230Z,7.81
2023-05-19T02:00:44.316Z,7.80
2023-05-19T02:03:19.210Z,7.82
2023-05-19T02:05:55.519Z,7.84
2023-05-19T02:08:43.198Z,7.86
2023-05-19T02:11:38.074Z,7.84
2023-05-19T02:14:16.196Z,7.81
2023-05-19T02:16:47.625Z,7.80
2023-05-19T02:19:26.255Z,7.76
2023-05-19T02:21:55.247Z,7.77
2023-05-19T02:24:22.872Z,7.73
2023-05-19T02:26:50.662Z,7.75
2023-05-19T02:29:19.359Z,7.71
2023-05-19T02:31:46.378Z,7.75
2023-05-19T02:34:13.163Z,7.76
2023-05-19T02:36:43.150Z,7.76
2023-05-19T02:39:11.034Z,7.77
2023-05-19T02:41:38.739Z,7.78
2023-05-19T02:44:05.994Z,7.82
2023-05-19T02:46:33.151Z,7.80
2023-05-19T02:48:59.974Z,7.77
2023-05-19T02:51:27.755Z,7.75
2023-05-19T02:53:54.470Z,7.75
2023-05-19T02:56:21.774Z,7.72
2023-05-19T02:58:48.828Z,7.76
2023-05-19T03:01:16.541Z,7.78
2023-05-19T03:03:43.496Z,7.76
2023-05-19T03:06:10.200Z,7.72
2023-05-19T03:08:36.990Z,7.77
2023-05-19T03:11:03.899Z,7.73
2023-05-19T03:13:30.692Z,7.73
2023-05-19T03:15:59.287Z,7.71
2023-05-19T03:18:26.927Z,7.71
2023-05-19T03:20:56.616Z,7.71
2023-05-19T03:23:23.379Z,7.69
2023-05-19T03:25:50.180Z,7.66
2023-05-19T03:28:17.441Z,7.67
2023-05-19T03:30:44.135Z,7.64
2023-05-19T03:33:14.694Z,7.69
2023-05-19T03:35:42.023Z,7.66
2023-05-19T03:38:08.916Z,7.66
2023-05-19T03:40:35.543Z,7.68
2023-05-19T03:43:06.241Z,7.70
2023-05-19T03:45:37.821Z,7.64
2023-05-19T03:48:21.304Z,7.67
2023-05-19T03:51:17.668Z,7.71
2023-05-19T03:53:45.898Z,7.76
2023-05-19T03:56:13.840Z,7.76
2023-05-19T03:58:45.106Z,7.75
2023-05-19T04:01:11.983Z,7.75
2023-05-19T04:03:38.840Z,7.82
2023-05-19T04:06:08.582Z,7.78
2023-05-19T04:08:35.336Z,7.83
2023-05-19T04:11:02.440Z,7.86
2023-05-19T04:13:29.452Z,7.80
2023-05-19T04:15:56.190Z,7.84
2023-05-19T04:18:22.968Z,7.90
2023-05-19T04:20:49.814Z,7.85
2023-05-19T04:23:16.861Z,7.88
2023-05-19T04:25:44.444Z,7.92
2023-05-19T04:28:11.337Z,7.97
2023-05-19T04:30:38.757Z,8.05
2023-05-19T04:33:05.532Z,8.07
2023-05-19T04:35:32.491Z,8.17
2023-05-19T04:38:01.710Z,8.11
2023-05-19T04:40:31.810Z,8.24
2023-05-19T04:42:59.049Z,8.23
2023-05-19T04:45:26.144Z,8.19
2023-05-19T04:47:58.356Z,8.23
2023-05-19T04:50:25.490Z,8.27
2023-05-19T04:52:52.679Z,8.34
2023-05-19T04:55:19.693Z,8.34
2023-05-19T04:57:48.213Z,8.37
2023-05-19T05:00:15.530Z,8.45
2023-05-19T05:03:14.630Z,8.51
2023-05-19T05:05:41.386Z,8.58
2023-05-19T05:08:09.685Z,8.59
2023-05-19T05:10:40.394Z,8.65
2023-05-19T05:13:08.694Z,8.63
2023-05-19T05:15:36.873Z,8.68
2023-05-19T05:18:04.949Z,8.65
2023-05-19T05:20:32.472Z,8.73
2023-05-19T05:22:59.859Z,8.82
2023-05-19T05:25:27.341Z,8.90
2023-05-19T05:27:54.333Z,8.92
2023-05-19T05:30:21.040Z,8.87
2023-05-19T05:32:48.131Z,8.96
2023-05-19T05:35:36.773Z,9.09
2023-05-19T05:38:04.717Z,9.11
2023-05-19T05:40:31.375Z,9.25
2023-05-19T05:43:01.218Z,9.20
2023-05-19T05:45:31.632Z,9.23
2023-05-19T05:48:01.058Z,9.27
2023-05-19T05:50:28.414Z,9.36
2023-05-19T05:52:57.490Z,9.52
2023-05-19T05:55:25.612Z,9.58
2023-05-19T05:57:52.375Z,9.53
2023-05-19T06:00:21.564Z,9.76
2023-05-19T06:02:52.315Z,10.00
2023-05-19T06:05:20.017Z,10.05
2023-05-19T06:07:48.731Z,9.94
2023-05-19T06:10:21.588Z,9.95
2023-05-19T06:12:49.606Z,9.99
2023-05-19T06:15:16.291Z,9.96
2023-05-19T06:17:43.043Z,10.26
2023-05-19T06:20:10.493Z,10.54
2023-05-19T06:22:37.313Z,10.77
2023-05-19T06:25:05.999Z,10.88
2023-05-19T06:27:34.866Z,10.89
2023-05-19T06:30:03.143Z,11.03
2023-05-19T06:32:36.167Z,10.99
2023-05-19T06:35:02.914Z,10.98
2023-05-19T06:37:30.009Z,11.13
2023-05-19T06:39:57.230Z,11.07
2023-05-19T06:42:25.461Z,11.39
2023-05-19T06:45:02.040Z,11.68
2023-05-19T06:47:28.816Z,11.89
2023-05-19T06:49:55.887Z,12.31
2023-05-19T06:52:26.389Z,12.27
2023-05-19T06:54:53.620Z,12.30
2023-05-19T06:57:21.291Z,11.93
2023-05-19T06:59:47.845Z,11.97
2023-05-19T07:02:15.081Z,12.11
2023-05-19T07:04:43.021Z,12.28
2023-05-19T07:07:11.541Z,12.67
2023-05-19T07:09:38.333Z,13.02
2023-05-19T07:12:05.234Z,13.45
2023-05-19T07:14:32.244Z,13.89
2023-05-19T07:16:59.044Z,14.17
2023-05-19T07:19:25.908Z,14.53
2023-05-19T07:21:54.970Z,14.26
2023-05-19T07:24:22.187Z,14.39
2023-05-19T07:26:49.203Z,14.29
2023-05-19T07:29:16.321Z,14.43
2023-05-19T07:31:42.957Z,14.35
2023-05-19T07:34:09.739Z,14.30
2023-05-19T07:36:36.618Z,14.26
2023-05-19T07:39:03.536Z,14.17
2023-05-19T07:41:30.488Z,14.11
2023-05-19T07:43:57.077Z,13.82
2023-05-19T07:46:23.855Z,13.40
2023-05-19T07:48:50.527Z,13.36
2023-05-19T07:51:17.296Z,13.24
2023-05-19T07:53:44.084Z,13.33
2023-05-19T07:56:10.837Z,13.64
2023-05-19T07:58:37.590Z,13.54
2023-05-19T08:01:04.400Z,13.86
2023-05-19T08:03:31.171Z,13.76
2023-05-19T08:05:58.016Z,13.81
2023-05-19T08:08:24.951Z,13.82
2023-05-19T08:10:51.638Z,13.98
2023-05-19T08:13:18.318Z,14.15
2023-05-19T08:15:45.245Z,14.56
2023-05-19T08:18:11.964Z,14.43
2023-05-19T08:20:38.878Z,14.45
2023-05-19T08:23:05.582Z,13.98
2023-05-19T08:25:32.725Z,13.98
2023-05-19T08:27:59.395Z,14.63
2023-05-19T08:30:25.962Z,15.13
2023-05-19T08:32:52.827Z,15.29
2023-05-19T08:35:19.545Z,15.51
2023-05-19T08:37:46.194Z,15.33
2023-05-19T08:40:17.792Z,15.07
2023-05-19T08:42:47.919Z,14.85
2023-05-19T08:45:14.882Z,14.57
2023-05-19T08:47:42.466Z,14.46
2023-05-19T08:50:11.603Z,14.02
2023-05-19T08:53:04.835Z,13.97
2023-05-19T08:55:36.801Z,14.68
2023-05-19T08:58:04.612Z,15.50
2023-05-19T09:00:33.227Z,15.12
2023-05-19T09:03:16.961Z,14.89
2023-05-19T09:05:46.629Z,15.02
2023-05-19T09:08:13.677Z,14.88
2023-05-19T09:10:40.779Z,14.89
2023-05-19T09:13:07.440Z,15.42
2023-05-19T09:15:36.867Z,16.10
2023-05-19T09:18:12.353Z,16.04
2023-05-19T09:20:41.620Z,16.00
2023-05-19T09:23:13.755Z,16.18
2023-05-19T09:25:51.535Z,15.30
2023-05-19T09:28:24.216Z,15.21
2023-05-19T09:31:11.584Z,14.77
2023-05-19T09:33:42.231Z,14.32
2023-05-19T09:36:11.616Z,14.60
2023-05-19T09:38:39.660Z,14.85
2023-05-19T09:41:08.517Z,15.16
2023-05-19T09:43:35.736Z,15.29
2023-05-19T09:46:12.166Z,15.15
2023-05-19T09:48:43.794Z,15.06
2023-05-19T09:51:10.835Z,14.79
2023-05-19T09:53:39.468Z,14.55
2023-05-19T09:56:08.696Z,14.06
2023-05-19T09:58:36.719Z,14.01
2023-05-19T10:01:04.707Z,13.64
2023-05-19T10:03:35.306Z,13.54
2023-05-19T10:06:04.013Z,13.71
2023-05-19T10:08:32.054Z,13.88
2023-05-19T10:10:59.613Z,14.09
2023-05-19T10:13:29.128Z,14.45
2023-05-19T10:15:59.330Z,14.85
2023-05-19T10:18:30.244Z,14.95
2023-05-19T10:20:57.895Z,15.36
2023-05-19T10:23:25.769Z,15.23
2023-05-19T10:25:57.767Z,14.96
2023-05-19T10:28:31.836Z,14.88
2023-05-19T10:31:01.700Z,14.40
2023-05-19T10:34:00.265Z,14.51
2023-05-19T10:36:30.712Z,14.57
2023-05-19T10:39:05.386Z,14.37
2023-05-19T10:41:53.484Z,14.38
2023-05-19T10:44:44.093Z,14.40
2023-05-19T10:47:12.252Z,14.26
2023-05-19T10:49:40.109Z,14.03
2023-05-19T10:52:29.837Z,13.91
2023-05-19T10:54:58.260Z,13.90
2023-05-19T10:57:28.829Z,13.70
2023-05-19T11:00:00.664Z,13.84
2023-05-19T11:02:44.044Z,13.84
2023-05-19T11:05:12.907Z,14.00
2023-05-19T11:07:42.525Z,14.16
2023-05-19T11:10:09.634Z,14.29
2023-05-19T11:12:44.896Z,14.43
2023-05-19T11:15:15.234Z,14.23
2023-05-19T11:17:45.302Z,13.87
2023-05-19T11:20:34.797Z,13.73
2023-05-19T11:23:08.925Z,14.02
2023-05-19T11:25:48.970Z,13.99
2023-05-19T11:28:19.816Z,13.85
2023-05-19T11:30:52.464Z,13.93
2023-05-19T11:33:20.704Z,13.96
2023-05-19T11:35:49.563Z,13.77
2023-05-19T11:38:18.497Z,13.85
2023-05-19T11:40:45.379Z,13.93
2023-05-19T11:43:12.001Z,13.95
2023-05-19T11:45:39.171Z,13.94
2023-05-19T11:48:06.931Z,13.88
2023-05-19T11:50:33.776Z,13.70
2023-05-19T11:53:01.487Z,13.57
2023-05-19T11:55:29.191Z,13.93
2023-05-19T11:58:03.981Z,14.38
2023-05-19T12:00:40.236Z,14.64
2023-05-19T12:03:08.143Z,14.59
2023-05-19T12:05:44.891Z,14.88
2023-05-19T12:08:12.689Z,15.13
2023-05-19T12:10:40.296Z,14.87
2023-05-19T12:13:09.841Z,14.75
2023-05-19T12:15:37.483Z,14.24
2023-05-19T12:18:04.492Z,14.26
2023-05-19T12:20:32.734Z,14.30
2023-05-19T12:23:01.054Z,14.13
2023-05-19T12:25:29.760Z,14.19
2023-05-19T12:28:03.101Z,14.26
2023-05-19T12:30:32.065Z,14.29
2023-05-19T12:32:59.145Z,14.24
2023-05-19T12:35:33.452Z,13.94
2023-05-19T12:38:07.298Z,13.95
2023-05-19T12:40:36.512Z,13.96
2023-05-19T12:43:04.257Z,13.57
2023-05-19T12:45:39.008Z,13.53
2023-05-19T12:48:11.400Z,13.62
2023-05-19T12:50:38.557Z,13.59
2023-05-19T12:53:08.794Z,13.58
2023-05-19T12:55:43.114Z,13.70
2023-05-19T12:58:11.520Z,13.58
2023-05-19T13:00:42.281Z,13.66
2023-05-19T13:03:22.214Z,13.46
2023-05-19T13:05:50.827Z,13.42
2023-05-19T13:08:23.309Z,13.43
2023-05-19T13:10:49.949Z,13.41
2023-05-19T13:13:17.485Z,13.40
2023-05-19T13:15:45.627Z,13.43
2023-05-19T13:18:13.623Z,13.17
2023-05-19T13:20:41.839Z,13.22
2023-05-19T13:23:16.753Z,13.25
2023-05-19T13:25:43.576Z,13.39
2023-05-19T13:28:11.093Z,13.19
2023-05-19T13:30:39.574Z,13.35
2023-05-19T13:33:07.205Z,13.25
2023-05-19T13:35:37.625Z,13.28
2023-05-19T13:38:10.061Z,13.34
2023-05-19T13:40:37.766Z,13.59
2023-05-19T13:43:04.544Z,13.62
2023-05-19T13:45:31.618Z,13.59
2023-05-19T13:47:58.552Z,13.71
2023-05-19T13:50:25.845Z,13.61
2023-05-19T13:52:52.518Z,13.68
2023-05-19T13:55:19.716Z,13.78
2023-05-19T13:57:46.350Z,13.88
2023-05-19T14:00:13.940Z,13.88
2023-05-19T14:02:40.797Z,14.05
2023-05-19T14:05:08.208Z,14.35
2023-05-19T14:07:35.107Z,14.53
2023-05-19T14:10:02.645Z,14.80
2023-05-19T14:12:38.103Z,14.90
2023-05-19T14:15:11.444Z,14.88
2023-05-19T14:17:38.561Z,14.69
2023-05-19T14:20:05.814Z,14.70
2023-05-19T14:22:32.507Z,14.45
2023-05-19T14:25:00.615Z,14.79
2023-05-19T14:27:27.270Z,14.81
2023-05-19T14:29:53.956Z,15.12
2023-05-19T14:32:21.179Z,14.90
2023-05-19T14:34:47.882Z,14.52
2023-05-19T14:37:14.785Z,14.31
2023-05-19T14:39:41.352Z,14.43
2023-05-19T14:42:08.064Z,14.53
2023-05-19T14:44:34.862Z,14.51
2023-05-19T14:47:02.376Z,14.34
2023-05-19T14:49:29.219Z,13.96
2023-05-19T14:51:56.349Z,13.88
2023-05-19T14:54:22.949Z,13.95
2023-05-19T14:56:49.582Z,13.84
2023-05-19T14:59:16.418Z,13.78
2023-05-19T15:01:43.191Z,13.91
2023-05-19T15:04:09.921Z,13.99
2023-05-19T15:06:36.574Z,13.87
2023-05-19T15:09:03.572Z,13.73
2023-05-19T15:11:30.190Z,13.66
2023-05-19T15:13:57.167Z,13.72
2023-05-19T15:16:23.820Z,13.79
2023-05-19T15:18:51.762Z,13.85
2023-05-19T15:21:18.543Z,13.89
2023-05-19T15:23:45.223Z,13.91
2023-05-19T15:26:11.902Z,13.79
2023-05-19T15:28:38.771Z,13.78
2023-05-19T15:31:05.621Z,13.76
2023-05-19T15:33:32.408Z,13.66
2023-05-19T15:35:59.312Z,13.44
2023-05-19T15:38:27.773Z,13.48
2023-05-19T15:40:56.048Z,13.54
2023-05-19T15:43:22.693Z,13.59
2023-05-19T15:45:52.099Z,13.63
2023-05-19T15:48:19.156Z,13.73
2023-05-19T15:50:45.891Z,13.70
2023-05-19T15:53:12.577Z,13.75
2023-05-19T15:55:39.205Z,13.87
2023-05-19T15:58:05.889Z,13.92
2023-05-19T16:00:32.692Z,13.85
2023-05-19T16:02:59.849Z,13.92
2023-05-19T16:05:26.710Z,14.05
2023-05-19T16:07:53.723Z,14.25
2023-05-19T16:10:20.555Z,14.43
2023-05-19T16:12:47.260Z,14.55
2023-05-19T16:15:13.864Z,14.69
2023-05-19T16:17:41.385Z,14.64
2023-05-19T16:20:08.643Z,14.52
2023-05-19T16:22:35.600Z,14.74
2023-05-19T16:25:02.480Z,15.54
2023-05-19T16:27:29.018Z,15.89
2023-05-19T16:29:56.137Z,16.51
2023-05-19T16:32:22.887Z,16.18
2023-05-19T16:34:49.536Z,16.10
2023-05-19T16:37:16.316Z,16.18
2023-05-19T16:39:43.929Z,15.39
2023-05-19T16:42:10.825Z,15.61
2023-05-19T16:44:37.523Z,15.22
2023-05-19T16:47:05.653Z,14.93
2023-05-19T16:49:33.791Z,14.81
2023-05-19T16:52:00.746Z,14.88
2023-05-19T16:54:28.740Z,14.95
2023-05-19T16:56:55.505Z,14.94
2023-05-19T16:59:22.199Z,14.84
2023-05-19T17:01:49.070Z,14.50
2023-05-19T17:04:15.949Z,14.39
2023-05-19T17:06:42.655Z,14.27
2023-05-19T17:09:09.280Z,14.17
2023-05-19T17:11:36.146Z,14.19
2023-05-19T17:14:07.472Z,14.24
2023-05-19T17:16:34.616Z,14.09
2023-05-19T17:19:02.675Z,14.19
2023-05-19T17:21:29.482Z,14.24
2023-05-19T17:23:56.563Z,14.20
2023-05-19T17:26:23.250Z,14.17
2023-05-19T17:28:50.118Z,13.94
2023-05-19T17:31:16.908Z,13.72
2023-05-19T17:33:43.789Z,13.54
2023-05-19T17:36:10.657Z,13.30
2023-05-19T17:38:40.587Z,13.25
2023-05-19T17:41:12.062Z,13.28
2023-05-19T17:43:40.237Z,13.32
2023-05-19T17:46:07.550Z,13.38
2023-05-19T17:48:34.650Z,13.38
2023-05-19T17:51:01.880Z,13.37
2023-05-19T17:53:29.640Z,13.33
2023-05-19T17:56:02.833Z,13.22
2023-05-19T17:58:29.733Z,13.13
2023-05-19T18:00:56.701Z,13.17
2023-05-19T18:03:24.023Z,13.11
2023-05-19T18:05:51.155Z,12.95
2023-05-19T18:08:18.597Z,12.90
2023-05-19T18:10:51.553Z,12.81
2023-05-19T18:13:18.748Z,12.79
2023-05-19T18:15:45.348Z,12.80
2023-05-19T18:18:12.117Z,12.71
2023-05-19T18:20:41.090Z,12.68
2023-05-19T18:23:07.782Z,12.59
2023-05-19T18:25:35.261Z,12.64
2023-05-19T18:28:01.869Z,12.65
2023-05-19T18:30:28.839Z,12.64
2023-05-19T18:32:55.585Z,12.66
2023-05-19T18:35:22.444Z,12.62
2023-05-19T18:37:49.115Z,12.60
2023-05-19T18:40:15.789Z,12.64
2023-05-19T18:42:42.537Z,12.54
2023-05-19T18:45:09.474Z,12.39
2023-05-19T18:47:36.805Z,12.33
2023-05-19T18:50:04.228Z,12.33
2023-05-19T18:52:31.344Z,12.39
2023-05-19T18:55:00.382Z,12.35
2023-05-19T18:57:27.235Z,12.31
2023-05-19T18:59:53.848Z,12.33
2023-05-19T19:02:20.593Z,12.39
2023-05-19T19:04:47.894Z,12.55
2023-05-19T19:07:14.645Z,12.49
2023-05-19T19:09:43.817Z,12.48
2023-05-19T19:12:10.982Z,12.42
2023-05-19T19:14:38.631Z,12.37
2023-05-19T19:17:05.737Z,12.35
2023-05-19T19:19:32.578Z,12.34
2023-05-19T19:21:59.546Z,12.38
2023-05-19T19:24:26.817Z,12.39
2023-05-19T19:26:53.410Z,12.39
2023-05-19T19:29:21.888Z,12.33
2023-05-19T19:31:48.831Z,12.32
2023-05-19T19:34:15.665Z,12.25
2023-05-19T19:36:42.462Z,12.22
2023-05-19T19:39:09.392Z,12.18
2023-05-19T19:41:36.737Z,12.10
2023-05-19T19:44:03.685Z,12.16
2023-05-19T19:46:30.619Z,12.12
2023-05-19T19:49:00.595Z,12.04
2023-05-19T19:51:28.067Z,11.98
2023-05-19T19:53:54.855Z,11.96
2023-05-19T19:56:24.639Z,11.96
2023-05-19T19:58:51.814Z,11.95
2023-05-19T20:01:23.349Z,11.89
2023-05-19T20:03:50.231Z,11.95
2023-05-19T20:06:16.853Z,11.93
2023-05-19T20:08:43.833Z,11.91
2023-05-19T20:11:10.947Z,11.89
2023-05-19T20:13:37.807Z,11.84
2023-05-19T20:16:04.820Z,11.87
2023-05-19T20:18:31.944Z,11.93
2023-05-19T20:20:58.605Z,11.96
2023-05-19T20:23:25.333Z,11.94
2023-05-19T20:26:10.139Z,11.97
2023-05-19T20:28:38.492Z,11.94
2023-05-19T20:31:07.675Z,11.92
2023-05-19T20:33:34.638Z,11.83
2023-05-19T20:36:01.807Z,11.83
2023-05-19T20:38:28.391Z,11.85
2023-05-19T20:40:55.202Z,11.91
2023-05-19T20:43:21.886Z,11.93
2023-05-19T20:45:48.717Z,11.94
2023-05-19T20:48:18.618Z,11.93
2023-05-19T20:50:45.882Z,11.92
2023-05-19T20:53:12.611Z,11.91
2023-05-19T20:55:39.352Z,11.83
2023-05-19T20:58:06.182Z,11.79
2023-05-19T21:00:33.051Z,11.80
2023-05-19T21:03:00.099Z,11.80
2023-05-19T21:05:26.759Z,11.73
2023-05-19T21:07:53.407Z,11.82
2023-05-19T21:10:20.546Z,11.74
2023-05-19T21:12:47.475Z,11.67
2023-05-19T21:15:14.439Z,11.66
2023-05-19T21:17:41.288Z,11.65
2023-05-19T21:20:08.576Z,11.62
2023-05-19T21:22:35.938Z,11.66
2023-05-19T21:25:02.865Z,11.71
2023-05-19T21:27:32.122Z,11.72
2023-05-19T21:29:58.903Z,11.68
2023-05-19T21:32:25.774Z,11.66
2023-05-19T21:34:52.433Z,11.64
2023-05-19T21:37:19.824Z,11.69
2023-05-19T21:39:46.527Z,11.70
2023-05-19T21:42:13.709Z,11.65
2023-05-19T21:44:40.581Z,11.69
2023-05-19T21:47:07.219Z,11.65
2023-05-19T21:49:34.130Z,11.56
2023-05-19T21:52:00.771Z,11.60
2023-05-19T21:54:27.401Z,11.53
2023-05-19T21:56:54.254Z,11.53
2023-05-19T21:59:23.184Z,11.49
2023-05-19T22:01:50.674Z,11.50
2023-05-19T22:04:18.799Z,11.56
2023-05-19T22:06:45.633Z,11.50
2023-05-19T22:09:12.781Z,11.50
2023-05-19T22:11:39.649Z,11.51
2023-05-19T22:14:06.960Z,11.47
2023-05-19T22:16:33.989Z,11.48
2023-05-19T22:19:00.853Z,11.48
2023-05-19T22:21:27.894Z,11.48
2023-05-19T22:23:54.800Z,11.49
2023-05-19T22:26:22.265Z,11.49
2023-05-19T22:28:50.256Z,11.47
2023-05-19T22:31:17.782Z,11.46
2023-05-19T22:33:44.747Z,11.48
2023-05-19T22:36:11.417Z,11.45
2023-05-19T22:38:38.149Z,11.45
2023-05-19T22:41:05.191Z,11.48
2023-05-19T22:43:31.983Z,11.45
2023-05-19T22:45:58.744Z,11.48
2023-05-19T22:48:25.733Z,11.53
2023-05-19T22:50:52.579Z,11.60
2023-05-19T22:53:19.288Z,11.56
2023-05-19T22:55:46.086Z,11.51
2023-05-19T22:58:12.994Z,11.44
2023-05-19T23:00:39.637Z,11.38
2023-05-19T23:03:06.439Z,11.36
2023-05-19T23:05:33.211Z,11.37
2023-05-19T23:08:00.076Z,11.29
2023-05-19T23:10:26.754Z,11.26
2023-05-19T23:12:53.444Z,11.29
2023-05-19T23:15:20.254Z,11.32
2023-05-19T23:17:47.006Z,11.33
2023-05-19T23:20:13.738Z,11.35
2023-05-19T23:22:40.436Z,11.33
2023-05-19T23:25:07.951Z,11.36
2023-05-19T23:27:37.390Z,11.32
2023-05-19T23:30:04.653Z,11.28
2023-05-19T23:32:31.250Z,11.25
2023-05-19T23:34:58.131Z,11.29
2023-05-19T23:37:24.763Z,11.28
2023-05-19T23:39:51.484Z,11.23
2023-05-19T23:42:18.293Z,11.27
2023-05-19T23:44:45.056Z,11.29
2023-05-19T23:47:11.676Z,11.27
2023-05-19T23:49:38.312Z,11.32
2023-05-19T23:52:05.621Z,11.34
2023-05-19T23:54:32.229Z,11.29
2023-05-19T23:56:59.349Z,11.27
2023-05-19T23:59:26.090Z,11.27
